Check out our new PWSWeather beta!
PWSweather.com
Personal Weather Stations
Station Observations
CLACTONUK
Clacton On Sea, Clacton On SeaGB co154rz

Clacton On SeaClacton On SeaGB co154rz

Lat: 51.8135755, Lon: 1.169044500000041

Elevation: 53

Station Type: Davis Vantage VUE

http://www.g0hwc.com/weather

Latest ConditionsUpdated 6:00:02 PM GMT Monday, Feb 24, 2020
Currently Today's Max Today's Min Today's Average
Temperature 52.5°F11.4°C 52.5°F11.4°C 41.0°F5.0°C 47.6°F8.7°C
Dew Point 50.0°F10.0°C 50.9°F10.5°C 34.7°F1.5°C 44.8°F7.1°C
Winds 6.0 mph SW9.7 kmh SW 10.0 mph -16.1 kmh - - 6.2 mph 10.0 kmh
Wind Gusts 15.0 mph24.1 kmh 24.0 mph38.6 kmh - -
Humidity 91% 99% 70% 90%
Pressure 29.60 in1002.4 mb 30.24 in1024.0 mb 29.60 in1002.4 mb -
Hour Temp Dew Point Humidity Winds Wind Gusts Pressure Precip Precip Rate Daily Precip Total
06:00 PM 52.5°F11.4°C 50.0°F10.0°C 91% 6.0 mph SW9.7 kmh SW 15.0 mph24.1 kmh 29.60 in1002.4 mb 0.00 in0.0 mm 0.00 in0.0 mm 0.00 in0.0 mm
05:50 PM 52.3°F11.3°C 50.2°F10.1°C 92% 6.0 mph SW9.7 kmh SW 16.0 mph25.7 kmh 29.60 in1002.4 mb 0.00 in0.0 mm 0.00 in0.0 mm 0.00 in0.0 mm
05:40 PM 52.3°F11.3°C 50.2°F10.1°C 92% 6.0 mph SW9.7 kmh SW 13.0 mph20.9 kmh 29.61 in1002.7 mb 0.00 in0.0 mm 0.00 in0.0 mm 0.00 in0.0 mm
05:30 PM 52.3°F11.3°C 50.0°F10.0°C 92% 7.0 mph SW11.3 kmh SW 19.0 mph30.6 kmh 29.61 in1002.7 mb 0.00 in0.0 mm 0.00 in0.0 mm 0.00 in0.0 mm
05:20 PM 52.3°F11.3°C 50.0°F10.0°C 92% 5.0 mph SW8.0 kmh SW 17.0 mph27.4 kmh 29.61 in1002.7 mb 0.00 in0.0 mm 0.00 in0.0 mm 0.00 in0.0 mm
05:10 PM 52.3°F11.3°C 50.0°F10.0°C 92% 6.0 mph SW9.7 kmh SW 17.0 mph27.4 kmh 29.61 in1002.7 mb 0.00 in0.0 mm 0.00 in0.0 mm 0.00 in0.0 mm
05:00 PM 52.3°F11.3°C 50.4°F10.2°C 93% 7.0 mph SW11.3 kmh SW 17.0 mph27.4 kmh 29.61 in1002.7 mb 0.00 in0.0 mm 0.00 in0.0 mm 0.00 in0.0 mm
04:50 PM 52.2°F11.2°C 50.2°F10.1°C 93% 7.0 mph SW11.3 kmh SW 18.0 mph29.0 kmh 29.61 in1002.7 mb 0.00 in0.0 mm 0.00 in0.0 mm 0.00 in0.0 mm
04:40 PM 52.2°F11.2°C 50.4°F10.2°C 94% 8.0 mph SW12.9 kmh SW 19.0 mph30.6 kmh 29.61 in1002.7 mb 0.00 in0.0 mm 0.00 in0.0 mm 0.00 in0.0 mm
04:30 PM 52.0°F11.1°C 50.5°F10.3°C 95% 10.0 mph SW16.1 kmh SW 21.0 mph33.8 kmh 29.61 in1002.7 mb 0.00 in0.0 mm 0.00 in0.0 mm 0.00 in0.0 mm
04:20 PM 51.4°F10.8°C 50.9°F10.5°C 98% 10.0 mph SW16.1 kmh SW 20.0 mph32.2 kmh 29.61 in1002.7 mb 0.00 in0.0 mm 0.00 in0.0 mm 0.00 in0.0 mm
04:10 PM 51.3°F10.7°C 50.7°F10.4°C 98% 9.0 mph SW14.5 kmh SW 19.0 mph30.6 kmh 29.62 in1003.0 mb 0.00 in0.0 mm 0.00 in0.0 mm 0.00 in0.0 mm
04:00 PM 50.9°F10.5°C 50.4°F10.2°C 98% 8.0 mph SW12.9 kmh SW 21.0 mph33.8 kmh 29.62 in1003.0 mb 0.00 in0.0 mm 0.00 in0.0 mm 0.00 in0.0 mm
03:50 PM 50.7°F10.4°C 50.2°F10.1°C 98% 10.0 mph SW16.1 kmh SW 19.0 mph30.6 kmh 29.62 in1003.0 mb 0.00 in0.0 mm 0.00 in0.0 mm 0.00 in0.0 mm
03:40 PM 50.7°F10.4°C 50.2°F10.1°C 98% 10.0 mph SW16.1 kmh SW 19.0 mph30.6 kmh 29.62 in1003.0 mb 0.00 in0.0 mm 0.00 in0.0 mm 0.00 in0.0 mm
03:30 PM 50.5°F10.3°C 50.0°F10.0°C 98% 9.0 mph SW14.5 kmh SW 21.0 mph33.8 kmh 29.62 in1003.0 mb 0.00 in0.0 mm 0.00 in0.0 mm 0.00 in0.0 mm
03:20 PM 50.5°F10.3°C 50.0°F10.0°C 98% 8.0 mph SW12.9 kmh SW 21.0 mph33.8 kmh 29.62 in1003.0 mb 0.00 in0.0 mm 0.00 in0.0 mm 0.00 in0.0 mm
03:10 PM 50.5°F10.3°C 50.2°F10.1°C 99% 8.0 mph SW12.9 kmh SW 20.0 mph32.2 kmh 29.63 in1003.4 mb 0.00 in0.0 mm 0.00 in0.0 mm 0.00 in0.0 mm
03:00 PM 50.4°F10.2°C 50.2°F10.1°C 99% 8.0 mph SSW12.9 kmh SSW 22.0 mph35.4 kmh 29.64 in1003.7 mb 0.00 in0.0 mm 0.00 in0.0 mm 0.00 in0.0 mm
02:50 PM 50.4°F10.2°C 50.0°F10.0°C 99% 7.0 mph SW11.3 kmh SW 18.0 mph29.0 kmh 29.66 in1004.4 mb 0.00 in0.0 mm 0.00 in0.0 mm 0.00 in0.0 mm
02:40 PM 50.4°F10.2°C 50.0°F10.0°C 99% 7.0 mph SW11.3 kmh SW 18.0 mph29.0 kmh 29.66 in1004.4 mb 0.00 in0.0 mm 0.00 in0.0 mm 0.00 in0.0 mm
02:30 PM 50.2°F10.1°C 49.6°F9.8°C 98% 8.0 mph SW12.9 kmh SW 17.0 mph27.4 kmh 29.67 in1004.7 mb 0.00 in0.0 mm 0.00 in0.0 mm 0.00 in0.0 mm
02:20 PM 50.2°F10.1°C 49.6°F9.8°C 98% 9.0 mph SW14.5 kmh SW 23.0 mph37.0 kmh 29.67 in1004.7 mb 0.00 in0.0 mm 0.00 in0.0 mm 0.00 in0.0 mm
02:10 PM 50.2°F10.1°C 49.6°F9.8°C 98% 7.0 mph SW11.3 kmh SW 17.0 mph27.4 kmh 29.66 in1004.4 mb 0.00 in0.0 mm 0.00 in0.0 mm 0.00 in0.0 mm
02:00 PM 50.2°F10.1°C 49.6°F9.8°C 98% 7.0 mph SW11.3 kmh SW 18.0 mph29.0 kmh 29.67 in1004.7 mb 0.00 in0.0 mm 0.00 in0.0 mm 0.00 in0.0 mm
01:50 PM 50.2°F10.1°C 49.6°F9.8°C 98% 9.0 mph SW14.5 kmh SW 19.0 mph30.6 kmh 29.67 in1004.7 mb 0.00 in0.0 mm 0.00 in0.0 mm 0.00 in0.0 mm
01:40 PM 50.4°F10.2°C 49.8°F9.9°C 98% 9.0 mph SW14.5 kmh SW 18.0 mph29.0 kmh 29.67 in1004.7 mb 0.00 in0.0 mm 0.00 in0.0 mm 0.00 in0.0 mm
01:30 PM 50.4°F10.2°C 49.8°F9.9°C 98% 9.0 mph SW14.5 kmh SW 24.0 mph38.6 kmh 29.68 in1005.1 mb 0.00 in0.0 mm 0.00 in0.0 mm 0.00 in0.0 mm
01:20 PM 50.5°F10.3°C 50.0°F10.0°C 98% 8.0 mph SW12.9 kmh SW 20.0 mph32.2 kmh 29.69 in1005.4 mb 0.00 in0.0 mm 0.00 in0.0 mm 0.00 in0.0 mm
01:10 PM 50.5°F10.3°C 49.8°F9.9°C 97% 9.0 mph SW14.5 kmh SW 21.0 mph33.8 kmh 29.70 in1005.8 mb 0.00 in0.0 mm 0.00 in0.0 mm 0.00 in0.0 mm
01:00 PM 50.7°F10.4°C 49.8°F9.9°C 97% 9.0 mph SW14.5 kmh SW 21.0 mph33.8 kmh 29.70 in1005.8 mb 0.00 in0.0 mm 0.00 in0.0 mm 0.00 in0.0 mm
12:50 PM 51.3°F10.7°C 49.6°F9.8°C 94% 10.0 mph SW16.1 kmh SW 22.0 mph35.4 kmh 29.70 in1005.8 mb 0.00 in0.0 mm 0.00 in0.0 mm 0.00 in0.0 mm
12:40 PM 51.6°F10.9°C 49.6°F9.8°C 93% 8.0 mph SW12.9 kmh SW 20.0 mph32.2 kmh 29.71 in1006.1 mb 0.00 in0.0 mm 0.00 in0.0 mm 0.00 in0.0 mm
12:30 PM 51.6°F10.9°C 49.8°F9.9°C 93% 9.0 mph SW14.5 kmh SW 18.0 mph29.0 kmh 29.71 in1006.1 mb 0.00 in0.0 mm 0.00 in0.0 mm 0.00 in0.0 mm
12:20 PM 51.6°F10.9°C 49.8°F9.9°C 93% 9.0 mph SW14.5 kmh SW 20.0 mph32.2 kmh 29.72 in1006.4 mb 0.00 in0.0 mm 0.00 in0.0 mm 0.00 in0.0 mm
12:10 PM 51.8°F11.0°C 49.5°F9.7°C 92% 9.0 mph SW14.5 kmh SW 20.0 mph32.2 kmh 29.72 in1006.4 mb 0.00 in0.0 mm 0.00 in0.0 mm 0.00 in0.0 mm
12:00 PM 52.0°F11.1°C 49.6°F9.8°C 92% 9.0 mph SW14.5 kmh SW 21.0 mph33.8 kmh 29.72 in1006.4 mb 0.00 in0.0 mm 0.00 in0.0 mm 0.00 in0.0 mm
11:50 AM 51.8°F11.0°C 49.5°F9.7°C 92% 10.0 mph SW16.1 kmh SW 22.0 mph35.4 kmh 29.73 in1006.8 mb 0.00 in0.0 mm 0.00 in0.0 mm 0.00 in0.0 mm
11:40 AM 51.6°F10.9°C 49.5°F9.7°C 92% 9.0 mph SW14.5 kmh SW 24.0 mph38.6 kmh 29.74 in1007.1 mb 0.00 in0.0 mm 0.00 in0.0 mm 0.00 in0.0 mm
11:30 AM 51.8°F11.0°C 49.5°F9.7°C 92% 9.0 mph SW14.5 kmh SW 21.0 mph33.8 kmh 29.74 in1007.1 mb 0.00 in0.0 mm 0.00 in0.0 mm 0.00 in0.0 mm
11:20 AM 51.8°F11.0°C 49.5°F9.7°C 92% 8.0 mph SW12.9 kmh SW 24.0 mph38.6 kmh 29.75 in1007.5 mb 0.00 in0.0 mm 0.00 in0.0 mm 0.00 in0.0 mm
11:10 AM 51.8°F11.0°C 49.5°F9.7°C 92% 9.0 mph SW14.5 kmh SW 22.0 mph35.4 kmh 29.76 in1007.8 mb 0.00 in0.0 mm 0.00 in0.0 mm 0.00 in0.0 mm
11:00 AM 51.8°F11.0°C 49.3°F9.6°C 91% 9.0 mph SW14.5 kmh SW 20.0 mph32.2 kmh 29.77 in1008.1 mb 0.00 in0.0 mm 0.00 in0.0 mm 0.00 in0.0 mm
10:50 AM 52.0°F11.1°C 49.5°F9.7°C 91% 9.0 mph SW14.5 kmh SW 22.0 mph35.4 kmh 29.77 in1008.1 mb 0.00 in0.0 mm 0.00 in0.0 mm 0.00 in0.0 mm
10:40 AM 51.8°F11.0°C 49.5°F9.7°C 92% 9.0 mph SW14.5 kmh SW 24.0 mph38.6 kmh 29.77 in1008.1 mb 0.00 in0.0 mm 0.00 in0.0 mm 0.00 in0.0 mm
10:30 AM 51.4°F10.8°C 50.4°F10.2°C 96% 9.0 mph SW14.5 kmh SW 20.0 mph32.2 kmh 29.77 in1008.1 mb 0.00 in0.0 mm 0.00 in0.0 mm 0.00 in0.0 mm
10:20 AM 51.1°F10.6°C 50.2°F10.1°C 97% 10.0 mph SW16.1 kmh SW 24.0 mph38.6 kmh 29.78 in1008.5 mb 0.00 in0.0 mm 0.00 in0.0 mm 0.00 in0.0 mm
10:10 AM 50.5°F10.3°C 50.0°F10.0°C 98% 9.0 mph SW14.5 kmh SW 22.0 mph35.4 kmh 29.78 in1008.5 mb 0.00 in0.0 mm 0.00 in0.0 mm 0.00 in0.0 mm
10:00 AM 50.4°F10.2°C 49.8°F9.9°C 98% 9.0 mph SW14.5 kmh SW 18.0 mph29.0 kmh 29.79 in1008.8 mb 0.00 in0.0 mm 0.00 in0.0 mm 0.00 in0.0 mm
09:50 AM 50.2°F10.1°C 49.6°F9.8°C 98% 8.0 mph SW12.9 kmh SW 19.0 mph30.6 kmh 29.79 in1008.8 mb 0.00 in0.0 mm 0.00 in0.0 mm 0.00 in0.0 mm
09:40 AM 50.2°F10.1°C 49.6°F9.8°C 98% 9.0 mph SW14.5 kmh SW 20.0 mph32.2 kmh 29.80 in1009.1 mb 0.00 in0.0 mm 0.00 in0.0 mm 0.00 in0.0 mm
09:30 AM 49.8°F9.9°C 49.3°F9.6°C 98% 9.0 mph SW14.5 kmh SW 20.0 mph32.2 kmh 29.81 in1009.5 mb 0.00 in0.0 mm 0.00 in0.0 mm 0.00 in0.0 mm
09:20 AM 49.6°F9.8°C 49.5°F9.7°C 99% 7.0 mph SW11.3 kmh SW 19.0 mph30.6 kmh 29.82 in1009.8 mb 0.00 in0.0 mm 0.00 in0.0 mm 0.00 in0.0 mm
09:10 AM 49.5°F9.7°C 49.3°F9.6°C 99% 8.0 mph SW12.9 kmh SW 17.0 mph27.4 kmh 29.81 in1009.5 mb 0.00 in0.0 mm 0.00 in0.0 mm 0.00 in0.0 mm
09:00 AM 49.3°F9.6°C 48.9°F9.4°C 99% 7.0 mph SW11.3 kmh SW 17.0 mph27.4 kmh 29.82 in1009.8 mb 0.00 in0.0 mm 0.00 in0.0 mm 0.00 in0.0 mm
08:50 AM 48.7°F9.3°C 48.4°F9.1°C 99% 7.0 mph SSW11.3 kmh SSW 15.0 mph24.1 kmh 29.82 in1009.8 mb 0.00 in0.0 mm 0.00 in0.0 mm 0.00 in0.0 mm
08:40 AM 48.2°F9.0°C 48.0°F8.9°C 99% 8.0 mph S12.9 kmh S 16.0 mph25.7 kmh 29.82 in1009.8 mb 0.00 in0.0 mm 0.00 in0.0 mm 0.00 in0.0 mm
08:30 AM 47.3°F8.5°C 46.8°F8.2°C 98% 7.0 mph S11.3 kmh S 16.0 mph25.7 kmh 29.83 in1010.2 mb 0.00 in0.0 mm 0.00 in0.0 mm 0.00 in0.0 mm
08:20 AM 46.8°F8.2°C 46.2°F7.9°C 98% 7.0 mph S11.3 kmh S 17.0 mph27.4 kmh 29.84 in1010.5 mb 0.00 in0.0 mm 0.00 in0.0 mm 0.00 in0.0 mm
08:10 AM 46.4°F8.0°C 45.9°F7.7°C 98% 8.0 mph SSE12.9 kmh SSE 15.0 mph24.1 kmh 29.85 in1010.8 mb 0.00 in0.0 mm 0.00 in0.0 mm 0.00 in0.0 mm
08:00 AM 45.9°F7.7°C 45.3°F7.4°C 98% 7.0 mph S11.3 kmh S 17.0 mph27.4 kmh 29.86 in1011.2 mb 0.00 in0.0 mm 0.00 in0.0 mm 0.00 in0.0 mm
07:50 AM 45.3°F7.4°C 44.8°F7.1°C 98% 7.0 mph SSE11.3 kmh SSE 17.0 mph27.4 kmh 29.88 in1011.9 mb 0.00 in0.0 mm 0.00 in0.0 mm 0.00 in0.0 mm
07:40 AM 44.8°F7.1°C 44.2°F6.8°C 98% 8.0 mph SE12.9 kmh SE 18.0 mph29.0 kmh 29.89 in1012.2 mb 0.00 in0.0 mm 0.00 in0.0 mm 0.00 in0.0 mm
07:30 AM 44.2°F6.8°C 43.5°F6.4°C 97% 7.0 mph SE11.3 kmh SE 16.0 mph25.7 kmh 29.91 in1012.9 mb 0.00 in0.0 mm 0.00 in0.0 mm 0.00 in0.0 mm
07:20 AM 44.1°F6.7°C 43.3°F6.3°C 97% 8.0 mph SE12.9 kmh SE 19.0 mph30.6 kmh 29.91 in1012.9 mb 0.00 in0.0 mm 0.00 in0.0 mm 0.00 in0.0 mm
07:10 AM 44.1°F6.7°C 43.3°F6.3°C 97% 9.0 mph SE14.5 kmh SE 17.0 mph27.4 kmh 29.92 in1013.2 mb 0.00 in0.0 mm 0.00 in0.0 mm 0.00 in0.0 mm
07:00 AM 44.1°F6.7°C 43.2°F6.2°C 97% 9.0 mph SE14.5 kmh SE 22.0 mph35.4 kmh 29.94 in1013.9 mb 0.00 in0.0 mm 0.00 in0.0 mm 0.00 in0.0 mm
06:50 AM 44.1°F6.7°C 43.0°F6.1°C 96% 9.0 mph SE14.5 kmh SE 19.0 mph30.6 kmh 29.95 in1014.2 mb 0.00 in0.0 mm 0.00 in0.0 mm 0.00 in0.0 mm
06:40 AM 44.1°F6.7°C 43.0°F6.1°C 96% 8.0 mph SE12.9 kmh SE 17.0 mph27.4 kmh 29.96 in1014.6 mb 0.00 in0.0 mm 0.00 in0.0 mm 0.00 in0.0 mm
06:30 AM 44.1°F6.7°C 43.0°F6.1°C 96% 7.0 mph SE11.3 kmh SE 17.0 mph27.4 kmh 29.98 in1015.2 mb 0.00 in0.0 mm 0.00 in0.0 mm 0.00 in0.0 mm
06:20 AM 43.9°F6.6°C 42.4°F5.8°C 95% 9.0 mph SE14.5 kmh SE 17.0 mph27.4 kmh 30.00 in1015.9 mb 0.00 in0.0 mm 0.00 in0.0 mm 0.00 in0.0 mm
06:10 AM 43.5°F6.4°C 42.3°F5.7°C 95% 7.0 mph SE11.3 kmh SE 14.0 mph22.5 kmh 30.00 in1015.9 mb 0.00 in0.0 mm 0.00 in0.0 mm 0.00 in0.0 mm
06:00 AM 43.3°F6.3°C 41.7°F5.4°C 94% 8.0 mph SE12.9 kmh SE 21.0 mph33.8 kmh 30.02 in1016.6 mb 0.00 in0.0 mm 0.00 in0.0 mm 0.00 in0.0 mm
05:50 AM 43.5°F6.4°C 41.9°F5.5°C 94% 7.0 mph SE11.3 kmh SE 15.0 mph24.1 kmh 30.03 in1016.9 mb 0.00 in0.0 mm 0.00 in0.0 mm 0.00 in0.0 mm
05:40 AM 43.7°F6.5°C 42.1°F5.6°C 94% 6.0 mph SE9.7 kmh SE 15.0 mph24.1 kmh 30.04 in1017.3 mb 0.00 in0.0 mm 0.00 in0.0 mm 0.00 in0.0 mm
05:30 AM 43.5°F6.4°C 41.5°F5.3°C 93% 6.0 mph SE9.7 kmh SE 13.0 mph20.9 kmh 30.05 in1017.6 mb 0.00 in0.0 mm 0.00 in0.0 mm 0.00 in0.0 mm
05:20 AM 43.3°F6.3°C 41.4°F5.2°C 93% 5.0 mph SE8.0 kmh SE 12.0 mph19.3 kmh 30.05 in1017.6 mb 0.00 in0.0 mm 0.00 in0.0 mm 0.00 in0.0 mm
05:10 AM 43.3°F6.3°C 41.2°F5.1°C 92% 4.0 mph SE6.4 kmh SE 12.0 mph19.3 kmh 30.07 in1018.3 mb 0.00 in0.0 mm 0.00 in0.0 mm 0.00 in0.0 mm
05:00 AM 43.3°F6.3°C 40.8°F4.9°C 91% 4.0 mph SE6.4 kmh SE 11.0 mph17.7 kmh 30.08 in1018.6 mb 0.00 in0.0 mm 0.00 in0.0 mm 0.00 in0.0 mm
04:50 AM 43.5°F6.4°C 40.5°F4.7°C 89% 4.0 mph SE6.4 kmh SE 12.0 mph19.3 kmh 30.08 in1018.6 mb 0.00 in0.0 mm 0.00 in0.0 mm 0.00 in0.0 mm
04:40 AM 44.1°F6.7°C 39.9°F4.4°C 85% 5.0 mph SE8.0 kmh SE 10.0 mph16.1 kmh 30.09 in1019.0 mb 0.00 in0.0 mm 0.00 in0.0 mm 0.00 in0.0 mm
04:30 AM 45.0°F7.2°C 39.0°F3.9°C 80% 6.0 mph SSE9.7 kmh SSE 13.0 mph20.9 kmh 30.10 in1019.3 mb 0.00 in0.0 mm 0.00 in0.0 mm 0.00 in0.0 mm
04:20 AM 45.0°F7.2°C 38.8°F3.8°C 79% 5.0 mph SE8.0 kmh SE 11.0 mph17.7 kmh 30.11 in1019.6 mb 0.00 in0.0 mm 0.00 in0.0 mm 0.00 in0.0 mm
04:10 AM 45.1°F7.3°C 38.3°F3.5°C 77% 5.0 mph SE8.0 kmh SE 10.0 mph16.1 kmh 30.12 in1020.0 mb 0.00 in0.0 mm 0.00 in0.0 mm 0.00 in0.0 mm
04:00 AM 45.1°F7.3°C 37.8°F3.2°C 75% 4.0 mph SE6.4 kmh SE 10.0 mph16.1 kmh 30.13 in1020.3 mb 0.00 in0.0 mm 0.00 in0.0 mm 0.00 in0.0 mm
03:50 AM 45.3°F7.4°C 37.2°F2.9°C 73% 4.0 mph SSE6.4 kmh SSE 10.0 mph16.1 kmh 30.13 in1020.3 mb 0.00 in0.0 mm 0.00 in0.0 mm 0.00 in0.0 mm
03:40 AM 45.5°F7.5°C 36.7°F2.6°C 71% 3.0 mph SSE4.8 kmh SSE 10.0 mph16.1 kmh 30.15 in1021.0 mb 0.00 in0.0 mm 0.00 in0.0 mm 0.00 in0.0 mm
03:30 AM 45.5°F7.5°C 36.3°F2.4°C 70% 3.0 mph SSE4.8 kmh SSE 6.0 mph9.7 kmh 30.16 in1021.3 mb 0.00 in0.0 mm 0.00 in0.0 mm 0.00 in0.0 mm
03:20 AM 45.1°F7.3°C 36.3°F2.4°C 71% 1.0 mph SSE1.6 kmh SSE 4.0 mph6.4 kmh 30.17 in1021.7 mb 0.00 in0.0 mm 0.00 in0.0 mm 0.00 in0.0 mm
03:10 AM 45.1°F7.3°C 36.7°F2.6°C 72% 1.0 mph SE1.6 kmh SE 3.0 mph4.8 kmh 30.17 in1021.7 mb 0.00 in0.0 mm 0.00 in0.0 mm 0.00 in0.0 mm
03:00 AM 45.1°F7.3°C 36.0°F2.2°C 70% 1.0 mph SSE1.6 kmh SSE 5.0 mph8.0 kmh 30.18 in1022.0 mb 0.00 in0.0 mm 0.00 in0.0 mm 0.00 in0.0 mm
02:50 AM 44.8°F7.1°C 36.7°F2.6°C 73% 2.0 mph S3.2 kmh S 7.0 mph11.3 kmh 30.19 in1022.4 mb 0.00 in0.0 mm 0.00 in0.0 mm 0.00 in0.0 mm
02:40 AM 44.4°F6.9°C 36.7°F2.6°C 74% 1.0 mph S1.6 kmh S 4.0 mph6.4 kmh 30.20 in1022.7 mb 0.00 in0.0 mm 0.00 in0.0 mm 0.00 in0.0 mm
02:30 AM 44.1°F6.7°C 36.0°F2.2°C 73% Calm Calm 2.0 mph3.2 kmh 30.20 in1022.7 mb 0.00 in0.0 mm 0.00 in0.0 mm 0.00 in0.0 mm
02:20 AM 44.1°F6.7°C 36.3°F2.4°C 74% Calm Calm 1.0 mph1.6 kmh 30.20 in1022.7 mb 0.00 in0.0 mm 0.00 in0.0 mm 0.00 in0.0 mm
02:10 AM 43.5°F6.4°C 36.1°F2.3°C 75% Calm Calm -- 30.21 in1023.0 mb 0.00 in0.0 mm 0.00 in0.0 mm 0.00 in0.0 mm
02:00 AM 43.3°F6.3°C 36.5°F2.5°C 77% Calm Calm 2.0 mph3.2 kmh 30.20 in1022.7 mb 0.00 in0.0 mm 0.00 in0.0 mm 0.00 in0.0 mm
01:50 AM 42.8°F6.0°C 36.7°F2.6°C 79% Calm Calm -- 30.21 in1023.0 mb 0.00 in0.0 mm 0.00 in0.0 mm 0.00 in0.0 mm
01:40 AM 42.4°F5.8°C 36.5°F2.5°C 79% Calm Calm -- 30.22 in1023.4 mb 0.00 in0.0 mm 0.00 in0.0 mm 0.00 in0.0 mm
01:30 AM 42.3°F5.7°C 36.3°F2.4°C 79% Calm Calm -- 30.23 in1023.7 mb 0.00 in0.0 mm 0.00 in0.0 mm 0.00 in0.0 mm
01:20 AM 42.3°F5.7°C 36.1°F2.3°C 79% Calm Calm -- 30.23 in1023.7 mb 0.00 in0.0 mm 0.00 in0.0 mm 0.00 in0.0 mm
01:10 AM 41.9°F5.5°C 35.6°F2.0°C 78% Calm Calm -- 30.23 in1023.7 mb 0.00 in0.0 mm 0.00 in0.0 mm 0.00 in0.0 mm
01:00 AM 41.7°F5.4°C 35.4°F1.9°C 78% Calm Calm -- 30.23 in1023.7 mb 0.00 in0.0 mm 0.00 in0.0 mm 0.00 in0.0 mm
12:50 AM 41.7°F5.4°C 35.4°F1.9°C 78% Calm Calm -- 30.23 in1023.7 mb 0.00 in0.0 mm 0.00 in0.0 mm 0.00 in0.0 mm
12:40 AM 41.5°F5.3°C 35.2°F1.8°C 78% Calm Calm -- 30.24 in1024.0 mb 0.00 in0.0 mm 0.00 in0.0 mm 0.00 in0.0 mm
12:30 AM 41.2°F5.1°C 34.9°F1.6°C 78% Calm Calm -- 30.24 in1024.0 mb 0.00 in0.0 mm 0.00 in0.0 mm 0.00 in0.0 mm
12:20 AM 41.2°F5.1°C 34.7°F1.5°C 78% Calm Calm -- 30.24 in1024.0 mb 0.00 in0.0 mm 0.00 in0.0 mm 0.00 in0.0 mm
12:10 AM 41.0°F5.0°C 34.7°F1.5°C 78% Calm Calm -- 30.24 in1024.0 mb 0.00 in0.0 mm 0.00 in0.0 mm 0.00 in0.0 mm
12:00 AM 41.2°F5.1°C 34.9°F1.6°C 78% Calm Calm -- 30.23 in1023.7 mb 0.00 in0.0 mm 0.00 in0.0 mm 0.00 in0.0 mm